If you wish to contribute or participate in the discussions about articles you are invited to join SKYbrary as a registered user

 Actions

Berlin/Schönefeld International Airport

From SKYbrary Wiki

EDDB
Airport
ICAO: EDDB – IATA: BER
Summary
Name Berlin/Schönefeld International Airport
Region Europe
Territory Germany DE.gif
Location Schönefeld, Brandenburg
Serving Berlin
Elevation 46.939 m
154 ft
154 ft46.939 m
Coordinates 52° 22' 35.86" N, 13° 30' 35.62" E
Runways
Designator Length Width Surface ROPS
07L/25R 2710 m8,891.076 ft
45 m147.638 ft
CON yes/yes
07R/25L 3000 m9,842.52 ft
45 m147.638 ft
ASP yes/yes


METAR
Observation EDDB 191750Z 29005KT CAVOK 06/M00 Q1027 NOSIG
Station Berlin-Schoenefeld
Date/Time 19 March 2019 17:50:00
Wind direction 290°
Wind speed 05 kts
Lowest cloud amount clouds and visibility OK
Temperature 6°C
Dew point
Humidity 65%
QNH 1027 hPa
Weather condition n/a

Berlin/Schönefeld Airport

ICAO: EDDB IATA: SXF

Description

International airport serving Berlin.

Climatology

Temperate Marine climate/Oceanic climate (Köppen climate classification Cfb) - Moderately cool summer and comparatively warm winter.

Maps

Terrain

Loading map...

Airport Layout

Loading map...


Accidents & Serious Incidents at or in vicinity of EDDB

None on SKYbrary